Terminal Aerodrome Forecast
Issued by NWS

Home | Current Version | Previous Version | Text Only | Print | Product List | Glossary On
Versions: 1 2 3 4 5 6 7 8 9 10 11 12 13 14 15 16 17 18
617
FTUS43 KICT 300520
TAFSLN
TAF
KSLN 300520Z 3006/3106 35015KT P6SM -RADZ OVC008
     FM301200 35014G22KT P6SM VCSH OVC008
     FM301400 34015G23KT P6SM OVC010
     FM302200 34011KT P6SM OVC015
     FM302300 35009KT P6SM OVC020
     FM310300 36005KT P6SM BKN025=

USA.gov is the U.S. government's official web portal to all federal, state and local government web resources and services.